sensor_id;sensor_type;location;lat;lon;timestamp;P1;durP1;ratioP1;P2;durP2;ratioP2
2474;SDS011;1248;48.694;10.160;2023-06-26T00:00:45;15.77;;;10.80;;
2474;SDS011;1248;48.694;10.160;2023-06-26T00:03:13;15.10;;;11.60;;
2474;SDS011;1248;48.694;10.160;2023-06-26T00:05:40;14.23;;;9.80;;
2474;SDS011;1248;48.694;10.160;2023-06-26T00:08:08;14.77;;;11.37;;
2474;SDS011;1248;48.694;10.160;2023-06-26T00:10:35;13.50;;;10.73;;
2474;SDS011;1248;48.694;10.160;2023-06-26T00:13:02;13.73;;;10.90;;
2474;SDS011;1248;48.694;10.160;2023-06-26T00:15:29;13.80;;;9.40;;
2474;SDS011;1248;48.694;10.160;2023-06-26T00:17:58;13.63;;;10.63;;
2474;SDS011;1248;48.694;10.160;2023-06-26T00:20:25;11.57;;;10.13;;
2474;SDS011;1248;48.694;10.160;2023-06-26T00:22:52;12.27;;;10.10;;
2474;SDS011;1248;48.694;10.160;2023-06-26T00:25:21;13.90;;;10.33;;
2474;SDS011;1248;48.694;10.160;2023-06-26T00:27:48;11.37;;;9.37;;
2474;SDS011;1248;48.694;10.160;2023-06-26T00:30:15;12.70;;;9.77;;
2474;SDS011;1248;48.694;10.160;2023-06-26T00:32:42;12.77;;;9.17;;
2474;SDS011;1248;48.694;10.160;2023-06-26T00:35:10;14.07;;;10.87;;
2474;SDS011;1248;48.694;10.160;2023-06-26T00:37:37;16.07;;;10.77;;
2474;SDS011;1248;48.694;10.160;2023-06-26T00:40:04;14.17;;;10.63;;
2474;SDS011;1248;48.694;10.160;2023-06-26T00:42:32;14.80;;;11.30;;
2474;SDS011;1248;48.694;10.160;2023-06-26T00:44:59;13.10;;;10.23;;
2474;SDS011;1248;48.694;10.160;2023-06-26T00:47:26;16.10;;;10.80;;
2474;SDS011;1248;48.694;10.160;2023-06-26T00:49:54;13.60;;;10.83;;
2474;SDS011;1248;48.694;10.160;2023-06-26T00:52:22;17.13;;;11.27;;
2474;SDS011;1248;48.694;10.160;2023-06-26T00:54:50;12.80;;;10.03;;
2474;SDS011;1248;48.694;10.160;2023-06-26T00:57:17;12.23;;;9.33;;
2474;SDS011;1248;48.694;10.160;2023-06-26T00:59:45;14.30;;;11.13;;
2474;SDS011;1248;48.694;10.160;2023-06-26T01:02:12;13.47;;;10.30;;
2474;SDS011;1248;48.694;10.160;2023-06-26T01:04:45;12.47;;;11.13;;
2474;SDS011;1248;48.694;10.160;2023-06-26T01:07:14;15.37;;;10.40;;
2474;SDS011;1248;48.694;10.160;2023-06-26T01:09:45;10.73;;;9.63;;
2474;SDS011;1248;48.694;10.160;2023-06-26T01:12:13;12.20;;;10.90;;
2474;SDS011;1248;48.694;10.160;2023-06-26T01:14:40;16.53;;;10.50;;
2474;SDS011;1248;48.694;10.160;2023-06-26T01:17:07;12.17;;;9.80;;
2474;SDS011;1248;48.694;10.160;2023-06-26T01:19:37;13.10;;;10.90;;
2474;SDS011;1248;48.694;10.160;2023-06-26T01:22:09;13.67;;;10.77;;
2474;SDS011;1248;48.694;10.160;2023-06-26T01:24:42;13.30;;;10.10;;
2474;SDS011;1248;48.694;10.160;2023-06-26T01:27:18;14.57;;;11.03;;
2474;SDS011;1248;48.694;10.160;2023-06-26T01:29:48;13.47;;;10.77;;
2474;SDS011;1248;48.694;10.160;2023-06-26T01:32:16;21.47;;;10.50;;
2474;SDS011;1248;48.694;10.160;2023-06-26T01:34:44;13.43;;;10.73;;
2474;SDS011;1248;48.694;10.160;2023-06-26T01:37:11;17.60;;;12.00;;
2474;SDS011;1248;48.694;10.160;2023-06-26T01:39:38;16.13;;;11.20;;
2474;SDS011;1248;48.694;10.160;2023-06-26T01:42:05;13.63;;;10.77;;
2474;SDS011;1248;48.694;10.160;2023-06-26T01:44:35;14.80;;;11.00;;
2474;SDS011;1248;48.694;10.160;2023-06-26T01:47:04;14.17;;;11.00;;
2474;SDS011;1248;48.694;10.160;2023-06-26T01:49:38;14.20;;;11.20;;
2474;SDS011;1248;48.694;10.160;2023-06-26T01:52:14;15.17;;;11.17;;
2474;SDS011;1248;48.694;10.160;2023-06-26T01:54:47;14.90;;;11.87;;
2474;SDS011;1248;48.694;10.160;2023-06-26T01:57:19;12.60;;;10.80;;
2474;SDS011;1248;48.694;10.160;2023-06-26T01:59:49;16.80;;;12.07;;
2474;SDS011;1248;48.694;10.160;2023-06-26T02:02:17;13.07;;;11.00;;
2474;SDS011;1248;48.694;10.160;2023-06-26T02:04:44;16.10;;;12.10;;
2474;SDS011;1248;48.694;10.160;2023-06-26T02:07:14;12.37;;;10.07;;
2474;SDS011;1248;48.694;10.160;2023-06-26T02:09:41;13.80;;;11.13;;
2474;SDS011;1248;48.694;10.160;2023-06-26T02:12:09;20.07;;;11.17;;
2474;SDS011;1248;48.694;10.160;2023-06-26T02:14:36;15.83;;;11.20;;
2474;SDS011;1248;48.694;10.160;2023-06-26T02:17:04;13.30;;;10.83;;
2474;SDS011;1248;48.694;10.160;2023-06-26T02:19:34;13.13;;;10.80;;
2474;SDS011;1248;48.694;10.160;2023-06-26T02:22:01;12.50;;;10.07;;
2474;SDS011;1248;48.694;10.160;2023-06-26T02:24:28;11.53;;;10.30;;
2474;SDS011;1248;48.694;10.160;2023-06-26T02:26:55;14.60;;;10.40;;
2474;SDS011;1248;48.694;10.160;2023-06-26T02:29:23;14.40;;;11.50;;
2474;SDS011;1248;48.694;10.160;2023-06-26T02:31:50;16.27;;;11.83;;
2474;SDS011;1248;48.694;10.160;2023-06-26T02:34:18;13.57;;;10.70;;
2474;SDS011;1248;48.694;10.160;2023-06-26T02:36:45;11.90;;;10.40;;
2474;SDS011;1248;48.694;10.160;2023-06-26T02:39:12;17.70;;;12.47;;
2474;SDS011;1248;48.694;10.160;2023-06-26T02:41:39;16.13;;;12.03;;
2474;SDS011;1248;48.694;10.160;2023-06-26T02:44:06;13.10;;;11.00;;
2474;SDS011;1248;48.694;10.160;2023-06-26T02:46:33;14.80;;;11.93;;
2474;SDS011;1248;48.694;10.160;2023-06-26T02:49:00;13.50;;;10.87;;
2474;SDS011;1248;48.694;10.160;2023-06-26T02:51:29;16.17;;;12.10;;
2474;SDS011;1248;48.694;10.160;2023-06-26T02:53:56;11.43;;;10.10;;
2474;SDS011;1248;48.694;10.160;2023-06-26T02:56:23;14.80;;;11.87;;
2474;SDS011;1248;48.694;10.160;2023-06-26T02:58:54;11.53;;;10.30;;
2474;SDS011;1248;48.694;10.160;2023-06-26T03:01:21;11.17;;;9.50;;
2474;SDS011;1248;48.694;10.160;2023-06-26T03:03:48;13.87;;;10.33;;
2474;SDS011;1248;48.694;10.160;2023-06-26T03:06:15;15.17;;;11.70;;
2474;SDS011;1248;48.694;10.160;2023-06-26T03:08:43;14.90;;;11.67;;
2474;SDS011;1248;48.694;10.160;2023-06-26T03:11:11;13.80;;;10.73;;
2474;SDS011;1248;48.694;10.160;2023-06-26T03:13:38;14.47;;;10.77;;
2474;SDS011;1248;48.694;10.160;2023-06-26T03:16:05;16.67;;;10.67;;
2474;SDS011;1248;48.694;10.160;2023-06-26T03:18:32;17.47;;;11.30;;
2474;SDS011;1248;48.694;10.160;2023-06-26T03:20:59;14.40;;;11.60;;
2474;SDS011;1248;48.694;10.160;2023-06-26T03:23:26;14.60;;;11.20;;
2474;SDS011;1248;48.694;10.160;2023-06-26T03:25:54;19.50;;;11.20;;
2474;SDS011;1248;48.694;10.160;2023-06-26T03:28:22;14.40;;;11.30;;
2474;SDS011;1248;48.694;10.160;2023-06-26T03:30:49;16.60;;;12.20;;
2474;SDS011;1248;48.694;10.160;2023-06-26T03:33:16;13.80;;;10.27;;
2474;SDS011;1248;48.694;10.160;2023-06-26T03:35:43;15.03;;;11.33;;
2474;SDS011;1248;48.694;10.160;2023-06-26T03:38:10;16.27;;;11.93;;
2474;SDS011;1248;48.694;10.160;2023-06-26T03:40:37;14.67;;;11.40;;
2474;SDS011;1248;48.694;10.160;2023-06-26T03:43:05;18.10;;;12.80;;
2474;SDS011;1248;48.694;10.160;2023-06-26T03:45:32;15.47;;;11.00;;
2474;SDS011;1248;48.694;10.160;2023-06-26T03:47:59;15.53;;;11.40;;
2474;SDS011;1248;48.694;10.160;2023-06-26T03:50:26;13.80;;;11.43;;
2474;SDS011;1248;48.694;10.160;2023-06-26T03:52:53;13.23;;;10.50;;
2474;SDS011;1248;48.694;10.160;2023-06-26T03:55:21;16.90;;;11.03;;
2474;SDS011;1248;48.694;10.160;2023-06-26T03:57:49;16.57;;;11.27;;
2474;SDS011;1248;48.694;10.160;2023-06-26T04:00:18;15.60;;;12.03;;
2474;SDS011;1248;48.694;10.160;2023-06-26T04:02:45;15.33;;;11.60;;
2474;SDS011;1248;48.694;10.160;2023-06-26T04:05:12;12.23;;;9.97;;
2474;SDS011;1248;48.694;10.160;2023-06-26T04:07:40;15.93;;;11.40;;
2474;SDS011;1248;48.694;10.160;2023-06-26T04:10:07;16.03;;;11.80;;
2474;SDS011;1248;48.694;10.160;2023-06-26T04:12:35;15.13;;;11.87;;
2474;SDS011;1248;48.694;10.160;2023-06-26T04:15:02;12.80;;;10.80;;
2474;SDS011;1248;48.694;10.160;2023-06-26T04:17:30;15.53;;;11.57;;
2474;SDS011;1248;48.694;10.160;2023-06-26T04:19:57;13.63;;;11.40;;
2474;SDS011;1248;48.694;10.160;2023-06-26T04:22:24;15.43;;;10.57;;
2474;SDS011;1248;48.694;10.160;2023-06-26T04:24:51;13.60;;;10.93;;
2474;SDS011;1248;48.694;10.160;2023-06-26T04:27:18;16.50;;;11.73;;
2474;SDS011;1248;48.694;10.160;2023-06-26T04:29:45;17.87;;;11.60;;
2474;SDS011;1248;48.694;10.160;2023-06-26T04:32:12;16.60;;;11.40;;
2474;SDS011;1248;48.694;10.160;2023-06-26T04:34:41;18.40;;;11.57;;
2474;SDS011;1248;48.694;10.160;2023-06-26T04:37:09;16.53;;;11.33;;
2474;SDS011;1248;48.694;10.160;2023-06-26T04:39:36;17.00;;;12.00;;
2474;SDS011;1248;48.694;10.160;2023-06-26T04:42:04;15.97;;;11.80;;
2474;SDS011;1248;48.694;10.160;2023-06-26T04:44:32;20.33;;;11.73;;
2474;SDS011;1248;48.694;10.160;2023-06-26T04:46:59;15.07;;;11.80;;
2474;SDS011;1248;48.694;10.160;2023-06-26T04:49:26;13.20;;;10.53;;
2474;SDS011;1248;48.694;10.160;2023-06-26T04:51:56;15.93;;;11.40;;
2474;SDS011;1248;48.694;10.160;2023-06-26T04:54:25;21.40;;;12.83;;
2474;SDS011;1248;48.694;10.160;2023-06-26T04:56:53;23.27;;;11.70;;
2474;SDS011;1248;48.694;10.160;2023-06-26T04:59:20;15.77;;;11.70;;
2474;SDS011;1248;48.694;10.160;2023-06-26T05:01:47;14.63;;;10.80;;
2474;SDS011;1248;48.694;10.160;2023-06-26T05:04:14;16.03;;;12.20;;
2474;SDS011;1248;48.694;10.160;2023-06-26T05:06:42;15.03;;;10.47;;
2474;SDS011;1248;48.694;10.160;2023-06-26T05:09:10;14.13;;;11.40;;
2474;SDS011;1248;48.694;10.160;2023-06-26T05:11:37;15.23;;;11.80;;
2474;SDS011;1248;48.694;10.160;2023-06-26T05:14:04;14.00;;;11.60;;
2474;SDS011;1248;48.694;10.160;2023-06-26T05:16:33;14.20;;;11.60;;
2474;SDS011;1248;48.694;10.160;2023-06-26T05:19:00;15.50;;;12.43;;
2474;SDS011;1248;48.694;10.160;2023-06-26T05:21:27;14.37;;;11.50;;
2474;SDS011;1248;48.694;10.160;2023-06-26T05:23:55;17.77;;;11.23;;
2474;SDS011;1248;48.694;10.160;2023-06-26T05:26:25;15.97;;;11.20;;
2474;SDS011;1248;48.694;10.160;2023-06-26T05:28:53;16.80;;;12.10;;
2474;SDS011;1248;48.694;10.160;2023-06-26T05:31:20;15.90;;;11.83;;
2474;SDS011;1248;48.694;10.160;2023-06-26T05:33:48;16.20;;;11.37;;
2474;SDS011;1248;48.694;10.160;2023-06-26T05:36:15;12.30;;;10.43;;
2474;SDS011;1248;48.694;10.160;2023-06-26T05:38:43;16.00;;;12.43;;
2474;SDS011;1248;48.694;10.160;2023-06-26T05:41:11;21.20;;;13.30;;
2474;SDS011;1248;48.694;10.160;2023-06-26T05:43:39;21.77;;;12.10;;
2474;SDS011;1248;48.694;10.160;2023-06-26T05:46:06;14.10;;;11.13;;
2474;SDS011;1248;48.694;10.160;2023-06-26T05:48:33;14.97;;;11.70;;
2474;SDS011;1248;48.694;10.160;2023-06-26T05:51:01;19.93;;;11.47;;
2474;SDS011;1248;48.694;10.160;2023-06-26T05:53:29;19.10;;;11.80;;
2474;SDS011;1248;48.694;10.160;2023-06-26T05:55:57;17.47;;;11.20;;
2474;SDS011;1248;48.694;10.160;2023-06-26T05:58:25;14.27;;;11.40;;
2474;SDS011;1248;48.694;10.160;2023-06-26T06:00:54;14.50;;;11.57;;
2474;SDS011;1248;48.694;10.160;2023-06-26T06:03:22;13.10;;;10.80;;
2474;SDS011;1248;48.694;10.160;2023-06-26T06:05:49;14.83;;;11.33;;
2474;SDS011;1248;48.694;10.160;2023-06-26T06:08:16;15.80;;;12.27;;
2474;SDS011;1248;48.694;10.160;2023-06-26T06:10:43;15.33;;;11.50;;
2474;SDS011;1248;48.694;10.160;2023-06-26T06:13:10;14.00;;;10.83;;
2474;SDS011;1248;48.694;10.160;2023-06-26T06:15:37;15.23;;;11.13;;
2474;SDS011;1248;48.694;10.160;2023-06-26T06:18:06;13.10;;;11.33;;
2474;SDS011;1248;48.694;10.160;2023-06-26T06:20:36;14.30;;;11.27;;
2474;SDS011;1248;48.694;10.160;2023-06-26T06:23:04;11.53;;;10.27;;
2474;SDS011;1248;48.694;10.160;2023-06-26T06:25:31;13.30;;;10.63;;
2474;SDS011;1248;48.694;10.160;2023-06-26T06:27:58;15.50;;;12.00;;
2474;SDS011;1248;48.694;10.160;2023-06-26T06:30:25;14.90;;;10.30;;
2474;SDS011;1248;48.694;10.160;2023-06-26T06:32:53;12.00;;;9.97;;
2474;SDS011;1248;48.694;10.160;2023-06-26T06:35:21;11.67;;;10.30;;
2474;SDS011;1248;48.694;10.160;2023-06-26T06:37:49;11.60;;;10.10;;
2474;SDS011;1248;48.694;10.160;2023-06-26T06:40:16;14.40;;;10.90;;
2474;SDS011;1248;48.694;10.160;2023-06-26T06:42:43;13.73;;;11.47;;
2474;SDS011;1248;48.694;10.160;2023-06-26T06:45:10;16.17;;;10.37;;
2474;SDS011;1248;48.694;10.160;2023-06-26T06:47:37;13.07;;;11.17;;
2474;SDS011;1248;48.694;10.160;2023-06-26T06:50:04;13.50;;;10.03;;
2474;SDS011;1248;48.694;10.160;2023-06-26T06:52:36;15.23;;;11.90;;
2474;SDS011;1248;48.694;10.160;2023-06-26T06:55:06;16.10;;;10.50;;
2474;SDS011;1248;48.694;10.160;2023-06-26T06:57:34;16.20;;;10.47;;
2474;SDS011;1248;48.694;10.160;2023-06-26T07:00:03;14.67;;;9.97;;
2474;SDS011;1248;48.694;10.160;2023-06-26T07:02:34;15.53;;;11.10;;
2474;SDS011;1248;48.694;10.160;2023-06-26T07:05:02;17.07;;;9.73;;
2474;SDS011;1248;48.694;10.160;2023-06-26T07:07:30;13.80;;;11.00;;
2474;SDS011;1248;48.694;10.160;2023-06-26T07:09:59;15.23;;;10.10;;
2474;SDS011;1248;48.694;10.160;2023-06-26T07:12:26;17.70;;;11.50;;
2474;SDS011;1248;48.694;10.160;2023-06-26T07:14:54;10.90;;;9.80;;
2474;SDS011;1248;48.694;10.160;2023-06-26T07:17:22;9.83;;;8.63;;
2474;SDS011;1248;48.694;10.160;2023-06-26T07:19:49;12.53;;;10.37;;
2474;SDS011;1248;48.694;10.160;2023-06-26T07:22:16;11.80;;;9.40;;
2474;SDS011;1248;48.694;10.160;2023-06-26T07:24:45;12.23;;;10.00;;
2474;SDS011;1248;48.694;10.160;2023-06-26T07:27:14;15.80;;;9.73;;
2474;SDS011;1248;48.694;10.160;2023-06-26T07:29:41;16.00;;;11.57;;
2474;SDS011;1248;48.694;10.160;2023-06-26T07:32:08;16.63;;;10.10;;
2474;SDS011;1248;48.694;10.160;2023-06-26T07:34:35;16.00;;;11.93;;
2474;SDS011;1248;48.694;10.160;2023-06-26T07:37:02;20.30;;;11.73;;
2474;SDS011;1248;48.694;10.160;2023-06-26T07:39:30;12.37;;;10.80;;
2474;SDS011;1248;48.694;10.160;2023-06-26T07:41:57;14.00;;;11.10;;
2474;SDS011;1248;48.694;10.160;2023-06-26T07:44:26;10.90;;;9.00;;
2474;SDS011;1248;48.694;10.160;2023-06-26T07:46:53;12.93;;;10.03;;
2474;SDS011;1248;48.694;10.160;2023-06-26T07:49:20;12.90;;;9.87;;
2474;SDS011;1248;48.694;10.160;2023-06-26T07:51:47;12.60;;;10.10;;
2474;SDS011;1248;48.694;10.160;2023-06-26T07:54:14;13.07;;;9.13;;
2474;SDS011;1248;48.694;10.160;2023-06-26T07:56:54;11.73;;;8.87;;
2474;SDS011;1248;48.694;10.160;2023-06-26T07:59:22;11.50;;;9.13;;
2474;SDS011;1248;48.694;10.160;2023-06-26T08:01:51;12.40;;;9.03;;
2474;SDS011;1248;48.694;10.160;2023-06-26T08:04:19;10.40;;;9.30;;
2474;SDS011;1248;48.694;10.160;2023-06-26T08:06:47;11.80;;;9.83;;
2474;SDS011;1248;48.694;10.160;2023-06-26T08:09:15;12.30;;;9.63;;
2474;SDS011;1248;48.694;10.160;2023-06-26T08:11:42;12.90;;;9.50;;
2474;SDS011;1248;48.694;10.160;2023-06-26T08:14:09;14.20;;;8.87;;
2474;SDS011;1248;48.694;10.160;2023-06-26T08:16:37;10.03;;;9.03;;
2474;SDS011;1248;48.694;10.160;2023-06-26T08:19:05;8.87;;;7.97;;
2474;SDS011;1248;48.694;10.160;2023-06-26T08:21:33;12.50;;;10.67;;
2474;SDS011;1248;48.694;10.160;2023-06-26T08:24:00;11.37;;;9.23;;
2474;SDS011;1248;48.694;10.160;2023-06-26T08:26:27;9.03;;;8.20;;
2474;SDS011;1248;48.694;10.160;2023-06-26T08:28:54;10.70;;;5.90;;
2474;SDS011;1248;48.694;10.160;2023-06-26T08:31:21;9.63;;;6.63;;
2474;SDS011;1248;48.694;10.160;2023-06-26T08:33:48;7.60;;;6.30;;
2474;SDS011;1248;48.694;10.160;2023-06-26T08:36:16;6.93;;;6.33;;
2474;SDS011;1248;48.694;10.160;2023-06-26T08:38:43;6.60;;;5.53;;
2474;SDS011;1248;48.694;10.160;2023-06-26T08:41:10;7.83;;;6.83;;
2474;SDS011;1248;48.694;10.160;2023-06-26T08:43:37;7.43;;;5.97;;
2474;SDS011;1248;48.694;10.160;2023-06-26T08:46:04;7.17;;;5.77;;
2474;SDS011;1248;48.694;10.160;2023-06-26T08:48:32;7.90;;;6.20;;
2474;SDS011;1248;48.694;10.160;2023-06-26T08:51:00;6.87;;;6.17;;
2474;SDS011;1248;48.694;10.160;2023-06-26T08:53:33;7.63;;;6.73;;
2474;SDS011;1248;48.694;10.160;2023-06-26T08:56:03;7.77;;;5.73;;
2474;SDS011;1248;48.694;10.160;2023-06-26T08:58:31;6.80;;;6.03;;
2474;SDS011;1248;48.694;10.160;2023-06-26T09:00:58;6.90;;;6.20;;
2474;SDS011;1248;48.694;10.160;2023-06-26T09:03:26;8.67;;;6.40;;
2474;SDS011;1248;48.694;10.160;2023-06-26T09:05:53;7.40;;;6.53;;
2474;SDS011;1248;48.694;10.160;2023-06-26T09:08:20;6.80;;;6.10;;
2474;SDS011;1248;48.694;10.160;2023-06-26T09:10:49;7.33;;;6.57;;
2474;SDS011;1248;48.694;10.160;2023-06-26T09:13:16;8.03;;;6.60;;
2474;SDS011;1248;48.694;10.160;2023-06-26T09:15:48;7.20;;;6.50;;
2474;SDS011;1248;48.694;10.160;2023-06-26T09:18:16;6.67;;;6.07;;
2474;SDS011;1248;48.694;10.160;2023-06-26T09:20:44;8.97;;;6.03;;
2474;SDS011;1248;48.694;10.160;2023-06-26T09:23:11;9.73;;;7.77;;
2474;SDS011;1248;48.694;10.160;2023-06-26T09:25:38;7.43;;;6.60;;
2474;SDS011;1248;48.694;10.160;2023-06-26T09:28:07;8.00;;;6.30;;
2474;SDS011;1248;48.694;10.160;2023-06-26T09:30:35;7.13;;;6.43;;
2474;SDS011;1248;48.694;10.160;2023-06-26T09:33:12;8.50;;;7.63;;
2474;SDS011;1248;48.694;10.160;2023-06-26T09:35:40;7.87;;;6.47;;
2474;SDS011;1248;48.694;10.160;2023-06-26T09:38:07;6.93;;;6.20;;
2474;SDS011;1248;48.694;10.160;2023-06-26T09:40:34;10.87;;;7.60;;
2474;SDS011;1248;48.694;10.160;2023-06-26T09:43:03;8.27;;;6.90;;
2474;SDS011;1248;48.694;10.160;2023-06-26T09:45:32;7.10;;;6.40;;
2474;SDS011;1248;48.694;10.160;2023-06-26T09:48:00;7.60;;;6.90;;
2474;SDS011;1248;48.694;10.160;2023-06-26T09:50:28;7.33;;;6.03;;
2474;SDS011;1248;48.694;10.160;2023-06-26T09:52:57;7.23;;;6.53;;
2474;SDS011;1248;48.694;10.160;2023-06-26T09:55:26;7.57;;;6.13;;
2474;SDS011;1248;48.694;10.160;2023-06-26T09:57:53;8.37;;;7.57;;
2474;SDS011;1248;48.694;10.160;2023-06-26T10:00:22;7.30;;;6.60;;
2474;SDS011;1248;48.694;10.160;2023-06-26T10:02:51;9.10;;;6.83;;
2474;SDS011;1248;48.694;10.160;2023-06-26T10:05:18;7.47;;;6.77;;
2474;SDS011;1248;48.694;10.160;2023-06-26T10:07:46;6.80;;;5.93;;
2474;SDS011;1248;48.694;10.160;2023-06-26T10:10:13;7.70;;;6.83;;
2474;SDS011;1248;48.694;10.160;2023-06-26T10:12:42;11.40;;;7.07;;
2474;SDS011;1248;48.694;10.160;2023-06-26T10:15:10;7.70;;;6.10;;
2474;SDS011;1248;48.694;10.160;2023-06-26T10:17:42;8.23;;;6.70;;
2474;SDS011;1248;48.694;10.160;2023-06-26T10:20:11;10.20;;;6.50;;
2474;SDS011;1248;48.694;10.160;2023-06-26T10:22:41;7.33;;;6.03;;
2474;SDS011;1248;48.694;10.160;2023-06-26T10:25:10;7.10;;;6.40;;
2474;SDS011;1248;48.694;10.160;2023-06-26T10:27:40;6.87;;;6.20;;
2474;SDS011;1248;48.694;10.160;2023-06-26T10:30:09;6.80;;;6.10;;
2474;SDS011;1248;48.694;10.160;2023-06-26T10:32:38;8.93;;;6.40;;
2474;SDS011;1248;48.694;10.160;2023-06-26T10:35:06;8.47;;;6.40;;
2474;SDS011;1248;48.694;10.160;2023-06-26T10:37:41;7.90;;;6.30;;
2474;SDS011;1248;48.694;10.160;2023-06-26T10:40:09;7.00;;;5.57;;
2474;SDS011;1248;48.694;10.160;2023-06-26T10:42:37;7.63;;;5.97;;
2474;SDS011;1248;48.694;10.160;2023-06-26T10:45:11;6.80;;;6.10;;
2474;SDS011;1248;48.694;10.160;2023-06-26T10:47:41;6.20;;;5.60;;
2474;SDS011;1248;48.694;10.160;2023-06-26T10:50:18;6.23;;;5.63;;
2474;SDS011;1248;48.694;10.160;2023-06-26T10:53:06;8.13;;;6.70;;
2474;SDS011;1248;48.694;10.160;2023-06-26T10:55:34;8.30;;;7.37;;
2474;SDS011;1248;48.694;10.160;2023-06-26T10:58:01;8.70;;;6.67;;
2474;SDS011;1248;48.694;10.160;2023-06-26T11:00:29;7.57;;;6.40;;
2474;SDS011;1248;48.694;10.160;2023-06-26T11:02:56;7.77;;;7.03;;
2474;SDS011;1248;48.694;10.160;2023-06-26T11:05:23;7.17;;;6.47;;
2474;SDS011;1248;48.694;10.160;2023-06-26T11:10:48;7.53;;;6.67;;
2474;SDS011;1248;48.694;10.160;2023-06-26T11:13:16;7.43;;;6.73;;
2474;SDS011;1248;48.694;10.160;2023-06-26T11:15:44;7.70;;;6.90;;
2474;SDS011;1248;48.694;10.160;2023-06-26T11:18:12;7.83;;;6.40;;
2474;SDS011;1248;48.694;10.160;2023-06-26T11:20:39;7.80;;;7.03;;
2474;SDS011;1248;48.694;10.160;2023-06-26T11:23:06;8.87;;;6.70;;
2474;SDS011;1248;48.694;10.160;2023-06-26T11:25:35;8.00;;;7.27;;
2474;SDS011;1248;48.694;10.160;2023-06-26T11:28:03;6.70;;;6.00;;
2474;SDS011;1248;48.694;10.160;2023-06-26T11:30:31;7.50;;;6.80;;
2474;SDS011;1248;48.694;10.160;2023-06-26T11:33:04;9.20;;;7.20;;
2474;SDS011;1248;48.694;10.160;2023-06-26T11:35:32;8.30;;;7.33;;
2474;SDS011;1248;48.694;10.160;2023-06-26T11:37:59;7.50;;;6.47;;
2474;SDS011;1248;48.694;10.160;2023-06-26T11:40:30;7.10;;;6.33;;
2474;SDS011;1248;48.694;10.160;2023-06-26T11:43:00;8.10;;;7.00;;
2474;SDS011;1248;48.694;10.160;2023-06-26T11:45:29;8.00;;;6.70;;
2474;SDS011;1248;48.694;10.160;2023-06-26T11:47:57;7.27;;;6.57;;
2474;SDS011;1248;48.694;10.160;2023-06-26T11:50:25;8.37;;;7.50;;
2474;SDS011;1248;48.694;10.160;2023-06-26T11:52:52;7.23;;;6.53;;
2474;SDS011;1248;48.694;10.160;2023-06-26T11:55:20;11.17;;;7.30;;
2474;SDS011;1248;48.694;10.160;2023-06-26T11:57:47;8.30;;;6.90;;
2474;SDS011;1248;48.694;10.160;2023-06-26T12:00:17;8.33;;;7.43;;
2474;SDS011;1248;48.694;10.160;2023-06-26T12:02:45;9.70;;;7.97;;
2474;SDS011;1248;48.694;10.160;2023-06-26T12:05:12;10.57;;;7.40;;
2474;SDS011;1248;48.694;10.160;2023-06-26T12:07:40;7.93;;;7.20;;
2474;SDS011;1248;48.694;10.160;2023-06-26T12:10:08;8.97;;;8.07;;
2474;SDS011;1248;48.694;10.160;2023-06-26T12:12:36;7.87;;;7.07;;
2474;SDS011;1248;48.694;10.160;2023-06-26T12:15:03;9.03;;;7.97;;
2474;SDS011;1248;48.694;10.160;2023-06-26T12:17:32;8.80;;;8.00;;
2474;SDS011;1248;48.694;10.160;2023-06-26T12:19:59;9.80;;;7.83;;
2474;SDS011;1248;48.694;10.160;2023-06-26T12:22:33;8.57;;;7.10;;
2474;SDS011;1248;48.694;10.160;2023-06-26T12:25:00;9.10;;;8.30;;
2474;SDS011;1248;48.694;10.160;2023-06-26T12:27:28;8.33;;;7.10;;
2474;SDS011;1248;48.694;10.160;2023-06-26T12:29:55;7.30;;;6.60;;
2474;SDS011;1248;48.694;10.160;2023-06-26T12:32:22;7.90;;;6.90;;
2474;SDS011;1248;48.694;10.160;2023-06-26T12:34:51;9.23;;;8.27;;
2474;SDS011;1248;48.694;10.160;2023-06-26T12:37:19;9.27;;;7.87;;
2474;SDS011;1248;48.694;10.160;2023-06-26T12:39:47;8.40;;;7.17;;
2474;SDS011;1248;48.694;10.160;2023-06-26T12:42:15;7.23;;;6.53;;
2474;SDS011;1248;48.694;10.160;2023-06-26T12:44:43;8.70;;;7.40;;
2474;SDS011;1248;48.694;10.160;2023-06-26T12:47:10;8.33;;;7.43;;
2474;SDS011;1248;48.694;10.160;2023-06-26T12:49:39;7.87;;;7.07;;
2474;SDS011;1248;48.694;10.160;2023-06-26T12:52:09;7.50;;;6.77;;
2474;SDS011;1248;48.694;10.160;2023-06-26T12:54:38;9.00;;;8.10;;
2474;SDS011;1248;48.694;10.160;2023-06-26T12:57:06;8.27;;;6.80;;
2474;SDS011;1248;48.694;10.160;2023-06-26T12:59:34;8.83;;;7.50;;
2474;SDS011;1248;48.694;10.160;2023-06-26T13:02:02;11.33;;;8.33;;
2474;SDS011;1248;48.694;10.160;2023-06-26T13:04:30;7.77;;;6.97;;
2474;SDS011;1248;48.694;10.160;2023-06-26T13:06:57;9.20;;;7.33;;
2474;SDS011;1248;48.694;10.160;2023-06-26T13:09:25;8.50;;;7.20;;
2474;SDS011;1248;48.694;10.160;2023-06-26T13:11:53;10.57;;;8.10;;
2474;SDS011;1248;48.694;10.160;2023-06-26T13:14:20;11.80;;;7.13;;
2474;SDS011;1248;48.694;10.160;2023-06-26T13:16:47;8.23;;;7.43;;
2474;SDS011;1248;48.694;10.160;2023-06-26T13:19:15;8.67;;;7.87;;
2474;SDS011;1248;48.694;10.160;2023-06-26T13:21:42;10.47;;;8.07;;
2474;SDS011;1248;48.694;10.160;2023-06-26T13:24:09;12.10;;;8.00;;
2474;SDS011;1248;48.694;10.160;2023-06-26T13:26:37;17.10;;;7.40;;
2474;SDS011;1248;48.694;10.160;2023-06-26T13:29:04;9.50;;;8.10;;
2474;SDS011;1248;48.694;10.160;2023-06-26T13:31:32;9.93;;;8.50;;
2474;SDS011;1248;48.694;10.160;2023-06-26T13:33:59;9.00;;;7.93;;
2474;SDS011;1248;48.694;10.160;2023-06-26T13:36:27;13.67;;;8.10;;
2474;SDS011;1248;48.694;10.160;2023-06-26T13:38:54;9.33;;;7.73;;
2474;SDS011;1248;48.694;10.160;2023-06-26T13:41:22;8.87;;;8.03;;
2474;SDS011;1248;48.694;10.160;2023-06-26T13:43:50;10.80;;;8.53;;
2474;SDS011;1248;48.694;10.160;2023-06-26T13:46:17;10.73;;;9.03;;
2474;SDS011;1248;48.694;10.160;2023-06-26T13:48:44;10.80;;;8.33;;
2474;SDS011;1248;48.694;10.160;2023-06-26T13:51:12;10.43;;;9.30;;
2474;SDS011;1248;48.694;10.160;2023-06-26T13:53:39;10.00;;;8.40;;
2474;SDS011;1248;48.694;10.160;2023-06-26T13:56:06;9.90;;;7.97;;
2474;SDS011;1248;48.694;10.160;2023-06-26T13:58:34;12.10;;;8.30;;
2474;SDS011;1248;48.694;10.160;2023-06-26T14:01:03;10.23;;;9.00;;
2474;SDS011;1248;48.694;10.160;2023-06-26T14:03:30;9.60;;;8.25;;
2474;SDS011;1248;48.694;10.160;2023-06-26T14:05:57;9.73;;;8.73;;
2474;SDS011;1248;48.694;10.160;2023-06-26T14:08:24;13.00;;;8.70;;
2474;SDS011;1248;48.694;10.160;2023-06-26T14:10:51;13.87;;;8.00;;
2474;SDS011;1248;48.694;10.160;2023-06-26T14:13:18;9.77;;;8.80;;
2474;SDS011;1248;48.694;10.160;2023-06-26T14:15:45;9.67;;;8.70;;
2474;SDS011;1248;48.694;10.160;2023-06-26T14:18:14;9.90;;;8.37;;
2474;SDS011;1248;48.694;10.160;2023-06-26T14:20:41;28.70;;;8.40;;
2474;SDS011;1248;48.694;10.160;2023-06-26T14:23:08;11.73;;;8.30;;
2474;SDS011;1248;48.694;10.160;2023-06-26T14:25:35;10.13;;;9.13;;
2474;SDS011;1248;48.694;10.160;2023-06-26T14:28:02;9.77;;;8.80;;
2474;SDS011;1248;48.694;10.160;2023-06-26T14:30:29;9.70;;;7.20;;
2474;SDS011;1248;48.694;10.160;2023-06-26T14:32:56;8.97;;;7.97;;
2474;SDS011;1248;48.694;10.160;2023-06-26T14:35:24;10.57;;;8.90;;
2474;SDS011;1248;48.694;10.160;2023-06-26T14:37:51;8.77;;;7.83;;
2474;SDS011;1248;48.694;10.160;2023-06-26T14:40:19;12.87;;;9.53;;
2474;SDS011;1248;48.694;10.160;2023-06-26T14:42:46;9.33;;;8.50;;
2474;SDS011;1248;48.694;10.160;2023-06-26T14:45:13;9.87;;;8.83;;
2474;SDS011;1248;48.694;10.160;2023-06-26T14:47:40;11.70;;;8.33;;
2474;SDS011;1248;48.694;10.160;2023-06-26T14:50:07;9.03;;;7.67;;
2474;SDS011;1248;48.694;10.160;2023-06-26T14:52:36;9.23;;;8.27;;